Botsford, Connecticut
Current Conditions -  °F | °C
As of 7:50 PM on Sunday 23 Nov 2014 (Local Time) from KOXC Reporting Station
Overcast Overcast  
Wind Chill: 41°   Ceiling: 25000
Heat Index: 45°   Visibility: 10mi
Dew Point: 28°   Wind: 6mph
Humidity: 53%   Direction: 160°SSE
Pressure: 30.14"   Gusts: NA
Location:  41.37°N, 73.26°W
Report Text: KOXC 240050Z 16005KT 10SM FEW130 OVC250 07/M02 A3014
Loading
Personal Weather Stations






























Interactive Weather Map New forecast layout! Learn more

10-Day Weather Forecast

Advertisements
Track Severe Weather on mobile